createdAt,value
2022-11-06T00:01:29.064Z,6
2022-11-06T00:03:27.811Z,7.5
2022-11-06T00:05:28.338Z,7.3
2022-11-06T00:07:27.527Z,7
2022-11-06T00:09:27.514Z,10
2022-11-06T00:11:27.517Z,7.3
2022-11-06T00:13:28.949Z,6.6
2022-11-06T00:15:27.625Z,7.2
2022-11-06T00:17:27.110Z,5.8
2022-11-06T00:19:27.189Z,7.1
2022-11-06T00:21:28.800Z,8
2022-11-06T00:23:26.816Z,6.5
2022-11-06T00:25:26.700Z,7.1
2022-11-06T00:27:27.213Z,9.6
2022-11-06T00:29:26.415Z,8.8
2022-11-06T00:31:28.368Z,7.6
2022-11-06T00:33:26.249Z,9.1
2022-11-06T00:35:26.135Z,9.6
2022-11-06T00:37:26.400Z,10.4
2022-11-06T00:39:27.204Z,9.2
2022-11-06T00:41:26.824Z,8.7
2022-11-06T00:43:25.694Z,9.3
2022-11-06T00:45:25.652Z,10
2022-11-06T00:47:25.493Z,9.9
2022-11-06T00:49:26.680Z,9.4
2022-11-06T00:51:27.073Z,11.2
2022-11-06T00:53:25.195Z,9.7
2022-11-06T00:55:25.124Z,11.1
2022-11-06T00:57:24.964Z,11.1
2022-11-06T00:59:24.991Z,12.5
2022-11-06T01:01:27.591Z,10.7
2022-11-06T01:03:24.670Z,9.3
2022-11-06T01:05:24.750Z,15.1
2022-11-06T01:07:24.680Z,15.2
2022-11-06T01:09:27.258Z,14.6
2022-11-06T01:11:26.073Z,16.2
2022-11-06T01:13:24.356Z,14.8
2022-11-06T01:15:24.149Z,13.5
2022-11-06T01:17:24.488Z,14.3
2022-11-06T01:19:24.277Z,14.4
2022-11-06T01:21:26.255Z,14.2
2022-11-06T01:23:24.047Z,8
2022-11-06T01:25:23.897Z,9.2
2022-11-06T01:27:27.469Z,10.9
2022-11-06T01:29:23.439Z,8.4
2022-11-06T01:31:25.412Z,8.1
2022-11-06T01:33:23.276Z,10.3
2022-11-06T01:35:23.186Z,8.3
2022-11-06T01:37:23.091Z,8.5
2022-11-06T01:39:23.088Z,8.1
2022-11-06T01:41:25.189Z,9.2
2022-11-06T01:43:25.336Z,10.2
2022-11-06T01:45:30.661Z,7
2022-11-06T01:47:25.095Z,11.7
2022-11-06T01:49:22.990Z,9.5
2022-11-06T01:51:25.007Z,9.3
2022-11-06T01:53:24.033Z,9.4
2022-11-06T01:55:25.522Z,8.5
2022-11-06T01:57:23.540Z,9.1
2022-11-06T01:59:25.744Z,10.6
2022-11-06T02:01:22.382Z,11.6
2022-11-06T02:03:21.915Z,11.8
2022-11-06T02:05:21.941Z,10
2022-11-06T02:07:21.936Z,10.7
2022-11-06T02:09:21.560Z,9.8
2022-11-06T02:11:21.757Z,9.7
2022-11-06T02:13:31.685Z,10.7
2022-11-06T02:15:36.492Z,8.3
2022-11-06T02:17:32.664Z,9.1
2022-11-06T02:19:39.088Z,11.1
2022-11-06T02:21:44.781Z,9.4
2022-11-06T02:23:44.756Z,9.8
2022-11-06T02:25:32.399Z,10.9
2022-11-06T02:27:23.747Z,10.2
2022-11-06T02:29:28.790Z,11.6
2022-11-06T02:31:26.018Z,11.2
2022-11-06T02:33:29.438Z,12.7
2022-11-06T02:35:23.692Z,11.1
2022-11-06T02:37:27.160Z,11.9
2022-11-06T02:39:23.812Z,11.2
2022-11-06T02:41:23.312Z,12.1
2022-11-06T02:43:25.613Z,10.9
2022-11-06T02:45:21.837Z,11.8
2022-11-06T02:47:22.314Z,12.5
2022-11-06T02:49:26.046Z,10.3
2022-11-06T02:51:24.854Z,10.8
2022-11-06T02:53:24.527Z,10.9
2022-11-06T02:55:26.059Z,9.4
2022-11-06T02:57:20.532Z,8.6
2022-11-06T02:59:22.909Z,12.1
2022-11-06T03:01:24.746Z,11.3
2022-11-06T03:03:25.560Z,11.8
2022-11-06T03:05:24.284Z,11.3
2022-11-06T03:07:24.823Z,10
2022-11-06T03:09:21.814Z,10.7
2022-11-06T03:11:22.211Z,9.7
2022-11-06T03:13:21.589Z,11.2
2022-11-06T03:15:25.784Z,9.9
2022-11-06T03:17:22.482Z,11.4
2022-11-06T03:19:26.069Z,12.2
2022-11-06T03:21:24.499Z,10.6
2022-11-06T03:23:23.336Z,11.2
2022-11-06T03:25:24.706Z,10.8
2022-11-06T03:27:21.953Z,10.8
2022-11-06T03:29:21.026Z,12.2
2022-11-06T03:31:23.222Z,9.6
2022-11-06T03:33:22.478Z,10.4
2022-11-06T03:35:22.627Z,12.7
2022-11-06T03:37:22.643Z,10
2022-11-06T03:39:25.210Z,10.6
2022-11-06T03:41:22.202Z,10.6
2022-11-06T03:43:21.453Z,10.4
2022-11-06T03:45:20.707Z,11.2
2022-11-06T03:47:22.061Z,10.6
2022-11-06T03:49:21.837Z,12.8
2022-11-06T03:51:20.982Z,12.1
2022-11-06T03:53:22.881Z,12.9
2022-11-06T03:55:19.152Z,11.7
2022-11-06T03:57:21.833Z,13.9
2022-11-06T03:59:17.384Z,13.7
2022-11-06T04:01:20.487Z,15.3
2022-11-06T04:03:24.365Z,12.8
2022-11-06T04:05:20.330Z,15.5
2022-11-06T04:07:20.645Z,15
2022-11-06T04:09:18.403Z,18.9
2022-11-06T04:11:21.536Z,17.1
2022-11-06T04:13:18.784Z,17.3
2022-11-06T04:15:18.574Z,17.7
2022-11-06T04:17:16.983Z,17.2
2022-11-06T04:19:17.270Z,17
2022-11-06T04:21:25.756Z,15.9
2022-11-06T04:23:26.316Z,19.8
2022-11-06T04:25:27.365Z,15.1
2022-11-06T04:27:27.000Z,15
2022-11-06T04:29:26.806Z,18.2
2022-11-06T04:31:24.260Z,19.1
2022-11-06T04:33:21.979Z,20
2022-11-06T04:35:20.340Z,23
2022-11-06T04:37:21.851Z,21.8
2022-11-06T04:39:21.773Z,22.7
2022-11-06T04:41:21.339Z,20.8
2022-11-06T04:43:22.866Z,24.7
2022-11-06T04:45:20.333Z,26.2
2022-11-06T04:47:17.558Z,21.7
2022-11-06T04:49:16.231Z,29.1
2022-11-06T04:51:14.908Z,36.7
2022-11-06T04:53:15.514Z,40.1
2022-11-06T04:55:13.761Z,29
2022-11-06T04:57:13.776Z,44.6
2022-11-06T04:59:16.985Z,38.4
2022-11-06T05:01:14.004Z,26.7
2022-11-06T05:03:14.703Z,28.8
2022-11-06T05:05:13.302Z,28.1
2022-11-06T05:07:13.835Z,24.7
2022-11-06T05:09:13.208Z,24.5
2022-11-06T05:11:13.429Z,23.6
2022-11-06T05:13:14.003Z,23.8
2022-11-06T05:15:12.933Z,22.8
2022-11-06T05:17:12.712Z,23.9
2022-11-06T05:19:12.580Z,27.1
2022-11-06T05:21:12.441Z,22.3
2022-11-06T05:23:12.546Z,27.4
2022-11-06T05:25:12.272Z,22.8
2022-11-06T05:27:12.171Z,30.8
2022-11-06T05:29:14.477Z,49.7
2022-11-06T05:31:12.020Z,48
2022-11-06T05:33:11.997Z,47
2022-11-06T05:35:11.721Z,27.2
2022-11-06T05:37:11.670Z,27
2022-11-06T05:39:11.671Z,30.8
2022-11-06T05:41:11.516Z,24.8
2022-11-06T05:43:11.370Z,21
2022-11-06T05:45:11.312Z,18.9
2022-11-06T05:47:11.247Z,27
2022-11-06T05:49:11.262Z,25.3
2022-11-06T05:51:11.122Z,50.3
2022-11-06T05:53:10.851Z,22.7
2022-11-06T05:55:14.654Z,23.2
2022-11-06T05:57:10.913Z,44
2022-11-06T05:59:11.086Z,34.2
2022-11-06T06:01:11.461Z,24.7
2022-11-06T06:03:10.839Z,24.3
2022-11-06T06:05:10.640Z,23.3
2022-11-06T06:07:10.221Z,19.2
2022-11-06T06:09:10.076Z,18.6
2022-11-06T06:11:10.224Z,20.7
2022-11-06T06:13:10.475Z,25.7
2022-11-06T06:15:10.387Z,22.4
2022-11-06T06:17:10.025Z,30.4
2022-11-06T06:19:09.597Z,18.8
2022-11-06T06:21:09.632Z,16.3
2022-11-06T06:23:09.815Z,16.6
2022-11-06T06:25:21.140Z,17
2022-11-06T06:27:09.639Z,16
2022-11-06T06:29:09.098Z,15.6
2022-11-06T06:31:10.717Z,17.5
2022-11-06T06:33:08.832Z,15.7
2022-11-06T06:35:08.942Z,36.2
2022-11-06T06:37:08.836Z,21.1
2022-11-06T06:39:08.569Z,16.7
2022-11-06T06:41:12.025Z,14.7
2022-11-06T06:43:08.328Z,19.1
2022-11-06T06:45:08.915Z,17.2
2022-11-06T06:47:08.356Z,16.6
2022-11-06T06:49:07.985Z,14.2
2022-11-06T06:51:08.059Z,14.5
2022-11-06T06:53:07.763Z,19.9
2022-11-06T06:55:08.288Z,16.6
2022-11-06T06:57:07.906Z,17.5
2022-11-06T06:59:07.957Z,18.9
2022-11-06T07:01:07.482Z,18.6
2022-11-06T07:03:07.418Z,18.5
2022-11-06T07:05:07.801Z,17.7
2022-11-06T07:07:07.066Z,17.6
2022-11-06T07:09:07.037Z,18.4
2022-11-06T07:11:08.586Z,20.1
2022-11-06T07:13:08.135Z,22
2022-11-06T07:15:08.249Z,30.8
2022-11-06T07:17:06.609Z,30.7
2022-11-06T07:19:06.486Z,28
2022-11-06T07:21:08.415Z,23.9
2022-11-06T07:23:07.171Z,27.9
2022-11-06T07:25:06.814Z,32.5
2022-11-06T07:27:06.275Z,30.9
2022-11-06T07:29:06.018Z,29.8
2022-11-06T07:31:07.538Z,27.9
2022-11-06T07:33:05.894Z,29.8
2022-11-06T07:35:07.340Z,29.7
2022-11-06T07:37:07.738Z,36.8
2022-11-06T07:39:05.617Z,35.6
2022-11-06T07:41:07.666Z,34.4
2022-11-06T07:43:06.996Z,35.5
2022-11-06T07:45:06.873Z,34.5
2022-11-06T07:47:05.375Z,35.7
2022-11-06T07:49:05.179Z,35.7
2022-11-06T07:51:08.037Z,33.9
2022-11-06T07:53:05.024Z,77.9
2022-11-06T07:55:06.051Z,52.5
2022-11-06T07:57:04.829Z,46.4
2022-11-06T07:59:05.087Z,51.2
2022-11-06T08:01:05.344Z,47.7
2022-11-06T08:03:04.554Z,83.4
2022-11-06T08:05:05.112Z,80.1
2022-11-06T08:07:05.095Z,42.9
2022-11-06T08:09:05.697Z,31.4
2022-11-06T08:11:05.690Z,30.3
2022-11-06T08:13:04.192Z,30.5
2022-11-06T08:15:04.947Z,37
2022-11-06T08:17:03.998Z,51.9
2022-11-06T08:19:03.964Z,51.2
2022-11-06T08:21:05.218Z,43.2
2022-11-06T08:23:06.158Z,36.5
2022-11-06T08:25:04.290Z,34.4
2022-11-06T08:27:03.703Z,32.4
2022-11-06T08:29:03.475Z,30.3
2022-11-06T08:31:04.286Z,28.9
2022-11-06T08:33:06.204Z,30
2022-11-06T08:35:05.856Z,32.3
2022-11-06T08:37:03.135Z,29.9
2022-11-06T08:39:03.053Z,30.8
2022-11-06T08:41:04.771Z,34.9
2022-11-06T08:43:06.159Z,40.5
2022-11-06T08:45:03.470Z,32.5
2022-11-06T08:47:02.761Z,34.2
2022-11-06T08:49:02.655Z,39.9
2022-11-06T08:51:03.730Z,39.8
2022-11-06T08:53:03.491Z,43.9
2022-11-06T08:55:02.789Z,51.8
2022-11-06T08:57:02.356Z,50.1
2022-11-06T08:59:02.289Z,41.4
2022-11-06T09:01:02.565Z,37.1
2022-11-06T09:03:04.462Z,37
2022-11-06T09:05:01.999Z,34.2
2022-11-06T09:07:01.938Z,31.8
2022-11-06T09:09:02.040Z,30.6
2022-11-06T09:11:05.010Z,34.6
2022-11-06T09:13:01.712Z,34.2
2022-11-06T09:15:01.723Z,30.8
2022-11-06T09:17:01.529Z,33.8
2022-11-06T09:19:01.488Z,37.9
2022-11-06T09:21:01.560Z,31.8
2022-11-06T09:23:03.364Z,28
2022-11-06T09:25:04.148Z,47.3
2022-11-06T09:27:01.311Z,29.9
2022-11-06T09:29:01.089Z,31.8
2022-11-06T09:31:01.494Z,31.3
2022-11-06T09:33:02.306Z,28.8
2022-11-06T09:35:00.813Z,24.5
2022-11-06T09:37:01.778Z,27.9
2022-11-06T09:39:00.701Z,28.7
2022-11-06T09:41:02.014Z,32.8
2022-11-06T09:43:12.659Z,28.1
2022-11-06T09:45:06.592Z,27.8
2022-11-06T09:47:05.822Z,22.6
2022-11-06T09:49:06.330Z,59.8
2022-11-06T09:51:09.551Z,80.2
2022-11-06T09:53:06.456Z,147.9
2022-11-06T09:55:03.886Z,149.9
2022-11-06T09:57:04.986Z,45.4
2022-11-06T09:59:02.904Z,35.1
2022-11-06T10:01:06.144Z,26.5
2022-11-06T10:03:05.373Z,28.6
2022-11-06T10:05:07.461Z,24.6
2022-11-06T10:06:59.681Z,26.3
2022-11-06T10:09:02.414Z,30.8
2022-11-06T10:11:04.785Z,28.5
2022-11-06T10:13:17.457Z,24.1
2022-11-06T10:15:15.761Z,26.8
2022-11-06T10:17:06.643Z,25
2022-11-06T10:19:09.689Z,27.7
2022-11-06T10:21:08.942Z,42.2
2022-11-06T10:23:04.627Z,34.2
2022-11-06T10:25:09.098Z,29
2022-11-06T10:27:02.009Z,39.5
2022-11-06T10:29:13.998Z,33.7
2022-11-06T10:31:10.429Z,29.6
2022-11-06T10:33:16.781Z,27.4
2022-11-06T10:35:02.554Z,25
2022-11-06T10:37:05.237Z,36.5
2022-11-06T10:38:59.539Z,23.9
2022-11-06T10:41:00.654Z,25.8
2022-11-06T10:43:08.275Z,43.3
2022-11-06T10:45:03.707Z,54.2
2022-11-06T10:47:03.286Z,33.6
2022-11-06T10:49:00.470Z,33.9
2022-11-06T10:51:11.354Z,35.5
2022-11-06T10:53:03.026Z,27.4
2022-11-06T10:55:17.946Z,42.1
2022-11-06T10:57:13.053Z,30.7
2022-11-06T10:58:58.402Z,27.5
2022-11-06T11:01:02.647Z,24.6
2022-11-06T11:03:01.119Z,28
2022-11-06T11:04:58.632Z,25.7
2022-11-06T11:07:08.336Z,25.8
2022-11-06T11:08:57.721Z,45.8
2022-11-06T11:11:05.111Z,34.1
2022-11-06T11:13:05.355Z,25.5
2022-11-06T11:15:14.047Z,31.4
2022-11-06T11:17:00.169Z,41.5
2022-11-06T11:19:15.893Z,44
2022-11-06T11:21:13.474Z,41.4
2022-11-06T11:23:07.133Z,39.7
2022-11-06T11:25:00.501Z,35.6
2022-11-06T11:27:01.219Z,39.2
2022-11-06T11:28:59.100Z,34.9
2022-11-06T11:31:05.386Z,35
2022-11-06T11:32:57.926Z,30.3
2022-11-06T11:34:58.406Z,32.8
2022-11-06T11:36:59.951Z,37.3
2022-11-06T11:38:57.070Z,31.1
2022-11-06T11:41:07.053Z,30
2022-11-06T11:43:20.622Z,34.7
2022-11-06T11:45:14.220Z,36.2
2022-11-06T11:46:56.667Z,31.1
2022-11-06T11:48:58.200Z,29.8
2022-11-06T11:50:56.526Z,27.6
2022-11-06T11:53:09.665Z,30
2022-11-06T11:54:56.478Z,38.4
2022-11-06T11:57:05.155Z,46.5
2022-11-06T11:58:58.752Z,33.9
2022-11-06T12:00:58.794Z,33.2
2022-11-06T12:03:00.372Z,33.7
2022-11-06T12:04:59.507Z,32.2
2022-11-06T12:07:00.131Z,27.9
2022-11-06T12:08:56.107Z,32.3
2022-11-06T12:11:02.275Z,31.6
2022-11-06T12:12:57.582Z,29.7
2022-11-06T12:15:16.000Z,32.8
2022-11-06T12:17:01.519Z,29.2
2022-11-06T12:18:59.080Z,33.5
2022-11-06T12:21:00.818Z,43.8
2022-11-06T12:22:57.729Z,35.8
2022-11-06T12:25:01.397Z,49.9
2022-11-06T12:26:59.122Z,84.4
2022-11-06T12:29:04.916Z,40.5
2022-11-06T12:31:03.327Z,29.1
2022-11-06T12:33:05.872Z,30.9
2022-11-06T12:35:04.525Z,30.3
2022-11-06T12:37:10.057Z,28.1
2022-11-06T12:39:01.046Z,25.7
2022-11-06T12:41:00.427Z,27.3
2022-11-06T12:43:08.379Z,27.8
2022-11-06T12:44:54.819Z,27.7
2022-11-06T12:47:00.018Z,28.8
2022-11-06T12:49:12.746Z,29.8
2022-11-06T12:51:03.526Z,29.2
2022-11-06T12:53:06.686Z,29.7
2022-11-06T12:55:09.542Z,39.8
2022-11-06T12:57:02.662Z,31.5
2022-11-06T12:59:04.823Z,29.9
2022-11-06T13:01:03.862Z,27.4
2022-11-06T13:03:16.762Z,29.8
2022-11-06T13:05:01.160Z,28.2
2022-11-06T13:07:07.509Z,47.9
2022-11-06T13:09:02.535Z,51.8
2022-11-06T13:11:03.882Z,44.6
2022-11-06T13:13:11.369Z,45.8
2022-11-06T13:15:05.381Z,34.6
2022-11-06T13:17:00.699Z,36.4
2022-11-06T13:19:03.696Z,37.7
2022-11-06T13:20:58.889Z,39
2022-11-06T13:23:03.872Z,40.4
2022-11-06T13:25:00.963Z,39
2022-11-06T13:26:57.615Z,45.1
2022-11-06T13:28:56.870Z,38.7
2022-11-06T13:30:55.316Z,36.9
2022-11-06T13:33:02.285Z,38.9
2022-11-06T13:34:54.881Z,39.3
2022-11-06T13:36:55.423Z,40.3
2022-11-06T13:38:57.521Z,41.2
2022-11-06T13:41:02.224Z,42.7
2022-11-06T13:42:59.557Z,37.6
2022-11-06T13:44:54.341Z,42.6
2022-11-06T13:46:59.225Z,47.2
2022-11-06T13:49:04.480Z,45.6
2022-11-06T13:50:58.430Z,58.5
2022-11-06T13:52:59.521Z,54.7
2022-11-06T13:55:06.906Z,54.4
2022-11-06T13:57:11.079Z,64.7
2022-11-06T13:59:24.046Z,46.5
2022-11-06T14:01:02.306Z,50.7
2022-11-06T14:03:20.310Z,48.3
2022-11-06T14:05:20.675Z,44.2
2022-11-06T14:06:54.812Z,39.9
2022-11-06T14:08:53.953Z,41.8
2022-11-06T14:10:56.629Z,36
2022-11-06T14:12:51.889Z,36.4
2022-11-06T14:15:12.844Z,46.8
2022-11-06T14:17:10.206Z,48.4
2022-11-06T14:18:56.376Z,39.9
2022-11-06T14:21:20.452Z,35.9
2022-11-06T14:22:50.890Z,30.3
2022-11-06T14:24:51.244Z,31.4
2022-11-06T14:26:50.594Z,34.5
2022-11-06T14:28:50.459Z,29.3
2022-11-06T14:31:11.589Z,31.2
2022-11-06T14:32:51.485Z,26.5
2022-11-06T14:34:27.202Z,26.5
2022-11-06T14:34:50.276Z,28.9
2022-11-06T14:36:50.109Z,23.8
2022-11-06T14:38:50.963Z,26
2022-11-06T14:40:49.809Z,32.2
2022-11-06T14:42:50.741Z,30.1
2022-11-06T14:44:51.724Z,26.7
2022-11-06T14:46:52.359Z,23.4
2022-11-06T14:48:51.304Z,28.4
2022-11-06T14:50:49.883Z,27.1
2022-11-06T14:52:52.443Z,37.1
2022-11-06T14:54:54.395Z,30.2
2022-11-06T14:56:53.027Z,34.9
2022-11-06T14:58:53.835Z,30.2
2022-11-06T15:00:52.375Z,32.2
2022-11-06T15:02:48.950Z,30.1
2022-11-06T15:04:52.965Z,36.7
2022-11-06T15:06:50.588Z,32.6
2022-11-06T15:08:54.575Z,31.2
2022-11-06T15:10:51.760Z,30.5
2022-11-06T15:13:04.192Z,26.1
2022-11-06T15:14:58.552Z,23.9
2022-11-06T15:16:50.215Z,23.4
2022-11-06T15:18:48.729Z,25.7
2022-11-06T15:20:51.884Z,28.3
2022-11-06T15:22:57.765Z,36.1
2022-11-06T15:24:53.858Z,36.4
2022-11-06T15:26:51.402Z,29.7
2022-11-06T15:29:02.012Z,73.8
2022-11-06T15:30:51.490Z,45.5
2022-11-06T15:32:51.389Z,59.3
2022-11-06T15:33:25.050Z,59.3
2022-11-06T15:33:32.422Z,59.3
2022-11-06T15:34:54.169Z,35.8
2022-11-06T15:36:54.434Z,30.6
2022-11-06T15:38:47.039Z,29.9
2022-11-06T15:40:48.381Z,31.8
2022-11-06T15:42:46.924Z,26.9
2022-11-06T15:44:48.255Z,26.9
2022-11-06T15:46:53.290Z,29.4
2022-11-06T15:48:47.004Z,29.1
2022-11-06T15:50:46.318Z,28.7
2022-11-06T15:52:48.315Z,30.5
2022-11-06T15:54:48.748Z,24.9
2022-11-06T15:56:48.476Z,27
2022-11-06T15:58:46.042Z,27.8
2022-11-06T16:00:46.128Z,26.6
2022-11-06T16:02:47.303Z,28.4
2022-11-06T16:04:47.390Z,26.5
2022-11-06T16:06:47.231Z,26
2022-11-06T16:08:46.154Z,31.5
2022-11-06T16:10:46.845Z,31.5
2022-11-06T16:12:46.507Z,29.7
2022-11-06T16:14:45.150Z,29.2
2022-11-06T16:16:47.300Z,31
2022-11-06T16:18:45.873Z,38.4
2022-11-06T16:20:47.623Z,32.6
2022-11-06T16:22:44.880Z,31.1
2022-11-06T16:24:48.605Z,35.8
2022-11-06T16:26:47.946Z,39.7
2022-11-06T16:28:46.794Z,42.1
2022-11-06T16:30:46.285Z,47.2
2022-11-06T16:32:44.380Z,35.3
2022-11-06T16:34:45.487Z,43
2022-11-06T16:36:58.897Z,36.4
2022-11-06T16:38:44.442Z,39.6
2022-11-06T16:40:49.347Z,36.2
2022-11-06T16:43:00.670Z,41.8
2022-11-06T16:44:45.730Z,37.6
2022-11-06T16:47:09.921Z,31.2
2022-11-06T16:48:43.447Z,36.3
2022-11-06T16:50:45.274Z,46.8
2022-11-06T16:52:52.760Z,52.6
2022-11-06T16:54:46.002Z,43.8
2022-11-06T16:56:43.107Z,65.7
2022-11-06T16:58:50.566Z,34.5
2022-11-06T17:00:43.021Z,34.6
2022-11-06T17:02:47.296Z,36
2022-11-06T17:04:42.765Z,38.6
2022-11-06T17:06:44.113Z,35.2
2022-11-06T17:08:57.008Z,42.3
2022-11-06T17:10:43.453Z,42.2
2022-11-06T17:12:42.275Z,33.8
2022-11-06T17:14:43.220Z,48
2022-11-06T17:16:46.997Z,37.2
2022-11-06T17:18:42.419Z,79.1
2022-11-06T17:20:46.953Z,50.2
2022-11-06T17:22:41.814Z,37.2
2022-11-06T17:24:41.687Z,43.3
2022-11-06T17:26:45.670Z,41.7
2022-11-06T17:28:41.841Z,36.8
2022-11-06T17:30:41.696Z,82.9
2022-11-06T17:32:41.502Z,56.5
2022-11-06T17:34:41.258Z,46.6
2022-11-06T17:36:41.296Z,92
2022-11-06T17:38:41.142Z,63.4
2022-11-06T17:40:41.723Z,161.5
2022-11-06T17:42:40.966Z,56.6
2022-11-06T17:44:40.970Z,50.2
2022-11-06T17:46:42.666Z,64.2
2022-11-06T17:48:40.696Z,41.5
2022-11-06T17:50:40.661Z,37.8
2022-11-06T17:52:40.591Z,32.2
2022-11-06T17:54:40.501Z,33.6
2022-11-06T17:56:40.812Z,31.8
2022-11-06T17:58:40.380Z,61.2
2022-11-06T18:00:40.350Z,33.8
2022-11-06T18:03:00.297Z,54.4
2022-11-06T18:04:40.359Z,43
2022-11-06T18:06:42.922Z,36.2
2022-11-06T18:08:40.010Z,37.7
2022-11-06T18:10:40.147Z,54
2022-11-06T18:12:39.773Z,30.3
2022-11-06T18:14:40.162Z,34.5
2022-11-06T18:16:43.851Z,29.3
2022-11-06T18:18:39.495Z,33.7
2022-11-06T18:20:43.454Z,33
2022-11-06T18:22:39.307Z,39.6
2022-11-06T18:24:39.251Z,56.4
2022-11-06T18:26:39.580Z,38.4
2022-11-06T18:28:39.278Z,36.2
2022-11-06T18:30:38.956Z,29.7
2022-11-06T18:32:38.985Z,38.8
2022-11-06T18:34:38.836Z,29
2022-11-06T18:36:38.781Z,26.8
2022-11-06T18:38:39.547Z,28.4
2022-11-06T18:40:38.905Z,28.6
2022-11-06T18:42:38.582Z,27.6
2022-11-06T18:44:38.471Z,27.3
2022-11-06T18:46:38.446Z,26.9
2022-11-06T18:48:38.495Z,26
2022-11-06T18:50:38.637Z,27.4
2022-11-06T18:52:56.844Z,28.6
2022-11-06T18:54:38.294Z,29.7
2022-11-06T18:56:38.491Z,25.2
2022-11-06T18:58:38.522Z,25.1
2022-11-06T19:00:39.285Z,29.6
2022-11-06T19:02:38.113Z,24.3
2022-11-06T19:04:37.880Z,26.1
2022-11-06T19:06:38.228Z,26.4
2022-11-06T19:08:37.843Z,25.3
2022-11-06T19:10:37.686Z,27.9
2022-11-06T19:12:37.609Z,25.3
2022-11-06T19:14:37.630Z,23.7
2022-11-06T19:16:37.457Z,25.7
2022-11-06T19:18:38.750Z,28.6
2022-11-06T19:20:39.019Z,25.6
2022-11-06T19:22:37.222Z,25.9
2022-11-06T19:24:37.433Z,27.7
2022-11-06T19:26:37.123Z,30.2
2022-11-06T19:27:00.977Z,30.2
2022-11-06T19:27:03.505Z,30.2
2022-11-06T19:28:37.155Z,24.4
2022-11-06T19:30:37.027Z,30.5
2022-11-06T19:32:36.906Z,23.8
2022-11-06T19:34:39.349Z,26.5
2022-11-06T19:36:36.871Z,26.4
2022-11-06T19:38:36.619Z,22.8
2022-11-06T19:40:36.573Z,26.2
2022-11-06T19:42:36.550Z,26.1
2022-11-06T19:44:36.460Z,22.6
2022-11-06T19:46:36.680Z,23.4
2022-11-06T19:48:36.400Z,24.8
2022-11-06T19:50:58.553Z,27.1
2022-11-06T19:52:41.790Z,28.1
2022-11-06T19:54:36.101Z,24.7
2022-11-06T19:56:36.166Z,27
2022-11-06T19:58:35.974Z,29.7
2022-11-06T20:00:37.213Z,25.5
2022-11-06T20:02:35.907Z,24.8
2022-11-06T20:04:35.637Z,24.6
2022-11-06T20:06:35.728Z,25.4
2022-11-06T20:08:36.386Z,26.6
2022-11-06T20:10:35.774Z,23.7
2022-11-06T20:12:35.329Z,26.3
2022-11-06T20:14:35.296Z,25.7
2022-11-06T20:16:35.193Z,25.5
2022-11-06T20:18:35.564Z,31.2
2022-11-06T20:20:36.597Z,24.1
2022-11-06T20:22:35.009Z,25.7
2022-11-06T20:24:34.908Z,25
2022-11-06T20:26:34.767Z,24.2
2022-11-06T20:28:35.330Z,26.1
2022-11-06T20:30:35.311Z,28.3
2022-11-06T20:32:34.934Z,23.7
2022-11-06T20:34:34.410Z,26.9
2022-11-06T20:36:34.413Z,30.7
2022-11-06T20:38:34.306Z,31.2
2022-11-06T20:40:34.770Z,25.2
2022-11-06T20:42:34.206Z,31.2
2022-11-06T20:44:34.891Z,26.5
2022-11-06T20:46:33.967Z,27.3
2022-11-06T20:48:35.059Z,26.5
2022-11-06T20:50:33.984Z,26.1
2022-11-06T20:52:33.739Z,27
2022-11-06T20:54:33.628Z,26.1
2022-11-06T20:56:33.657Z,25.6
2022-11-06T20:58:33.796Z,25.7
2022-11-06T21:00:33.436Z,25.7
2022-11-06T21:02:33.497Z,27.8
2022-11-06T21:04:33.237Z,27.4
2022-11-06T21:06:33.237Z,31
2022-11-06T21:08:34.027Z,31.6
2022-11-06T21:10:33.128Z,27.7
2022-11-06T21:12:33.314Z,27.1
2022-11-06T21:14:33.093Z,30.2
2022-11-06T21:16:34.645Z,29.6
2022-11-06T21:18:35.180Z,26.8
2022-11-06T21:20:36.736Z,26.9
2022-11-06T21:22:32.544Z,25.2
2022-11-06T21:24:33.396Z,27.2
2022-11-06T21:26:34.831Z,24.3
2022-11-06T21:28:32.600Z,28.3
2022-11-06T21:30:32.267Z,29.1
2022-11-06T21:32:32.173Z,27.8
2022-11-06T21:34:32.147Z,28.2
2022-11-06T21:36:34.070Z,28.3
2022-11-06T21:38:31.968Z,24.4
2022-11-06T21:40:32.768Z,27.1
2022-11-06T21:42:31.839Z,26.4
2022-11-06T21:44:31.742Z,26.7
2022-11-06T21:46:32.079Z,25.9
2022-11-06T21:48:45.718Z,27.2
2022-11-06T21:50:31.487Z,30.8
2022-11-06T21:52:31.497Z,27
2022-11-06T21:54:31.312Z,27.1
2022-11-06T21:56:32.259Z,24
2022-11-06T21:58:31.192Z,27.1
2022-11-06T22:00:31.415Z,25.9
2022-11-06T22:02:31.138Z,27
2022-11-06T22:04:31.006Z,26.2
2022-11-06T22:06:31.102Z,26.9
2022-11-06T22:08:30.887Z,28.2
2022-11-06T22:10:30.761Z,27.5
2022-11-06T22:12:30.802Z,30
2022-11-06T22:14:30.920Z,30.1
2022-11-06T22:16:34.339Z,30.1
2022-11-06T22:18:30.438Z,28.4
2022-11-06T22:20:30.346Z,28
2022-11-06T22:22:30.339Z,26.7
2022-11-06T22:24:30.346Z,28.5
2022-11-06T22:26:32.143Z,30
2022-11-06T22:28:30.317Z,27.6
2022-11-06T22:30:30.059Z,28.9
2022-11-06T22:32:29.974Z,28.9
2022-11-06T22:34:30.058Z,27.4
2022-11-06T22:36:30.364Z,25.7
2022-11-06T22:38:29.897Z,27.2
2022-11-06T22:40:29.829Z,29.1
2022-11-06T22:42:30.339Z,26.9
2022-11-06T22:44:31.374Z,30.5
2022-11-06T22:46:29.760Z,28.4
2022-11-06T22:48:30.590Z,27.4
2022-11-06T22:50:29.503Z,28.1
2022-11-06T22:52:29.894Z,28
2022-11-06T22:54:29.405Z,30.1
2022-11-06T22:56:31.029Z,30.8
2022-11-06T22:58:29.930Z,29.2
2022-11-06T23:00:29.243Z,28.7
2022-11-06T23:02:29.331Z,29.9
2022-11-06T23:04:29.165Z,25.5
2022-11-06T23:06:29.436Z,27.8
2022-11-06T23:08:29.258Z,28
2022-11-06T23:10:29.033Z,28.5
2022-11-06T23:12:28.984Z,31.4
2022-11-06T23:14:28.894Z,33.2
2022-11-06T23:16:28.824Z,30.2
2022-11-06T23:18:28.763Z,30.5
2022-11-06T23:20:31.031Z,32.6
2022-11-06T23:22:28.607Z,33.6
2022-11-06T23:24:28.695Z,30.1
2022-11-06T23:26:28.527Z,33.8
2022-11-06T23:28:28.445Z,34.5
2022-11-06T23:30:29.109Z,32.8
2022-11-06T23:32:32.016Z,32.9
2022-11-06T23:34:28.298Z,36.2
2022-11-06T23:36:28.558Z,35.3
2022-11-06T23:38:28.146Z,33
2022-11-06T23:40:28.124Z,33.7
2022-11-06T23:42:28.109Z,32.8
2022-11-06T23:44:27.995Z,33
2022-11-06T23:46:30.379Z,32.8
2022-11-06T23:48:27.842Z,37.5
2022-11-06T23:50:27.847Z,34.8
2022-11-06T23:52:28.245Z,33.3
2022-11-06T23:54:27.733Z,31.6
2022-11-06T23:56:27.678Z,34.1
2022-11-06T23:58:27.637Z,33.6
